Time;durP1;ratioP1;P1;durP2;ratioP2;P2;SDS_P1;SDS_P2;PMS_P1;PMS_P2;Temp;Humidity;BMP_temperature;BMP_pressure;BME280_temperature;BME280_humidity;BME280_pressure;Samples;Min_cycle;Max_cycle;Signal;HPM_P1;HPM_P2
2022/04/20 00:01:48;;;;;;;3.90;1.50;;;;;;;6.77;58.58;101029.59;4987131;28;20583;-86
2022/04/20 00:04:15;;;;;;;5.03;1.70;;;;;;;6.73;58.49;101017.41;4984260;28;20200;-85
2022/04/20 00:06:41;;;;;;;1.77;1.67;;;;;;;6.67;59.20;101015.84;4989938;28;20224;-86
2022/04/20 00:09:08;;;;;;;2.03;1.70;;;;;;;6.63;58.71;101023.06;4988761;28;20576;-85
2022/04/20 00:11:34;;;;;;;2.20;1.83;;;;;;;6.56;59.19;101015.44;4993314;28;20212;-85
2022/04/20 00:14:01;;;;;;;3.50;1.60;;;;;;;6.53;59.42;101021.72;4987161;28;20845;-85
2022/04/20 00:16:27;;;;;;;2.53;1.93;;;;;;;6.49;59.81;101019.25;4995903;28;20231;-85
2022/04/20 00:18:55;;;;;;;3.23;2.00;;;;;;;6.47;60.12;101026.38;4988644;28;20220;-84
2022/04/20 00:21:22;;;;;;;1.90;1.73;;;;;;;6.45;60.38;101020.31;4988969;28;20318;-84
2022/04/20 00:23:48;;;;;;;3.37;1.60;;;;;;;6.43;60.20;101015.09;4993142;28;20207;-85
2022/04/20 00:26:15;;;;;;;1.70;1.60;;;;;;;6.41;60.42;101010.78;4992164;28;20232;-86
2022/04/20 00:28:41;;;;;;;2.90;2.00;;;;;;;6.40;60.46;101019.63;4994680;28;20200;-85
2022/04/20 00:31:09;;;;;;;1.80;1.53;;;;;;;6.39;60.47;101018.78;4990926;28;20212;-85
2022/04/20 00:33:37;;;;;;;2.60;1.80;;;;;;;6.38;60.95;101016.19;4993305;28;20199;-85
2022/04/20 00:36:05;;;;;;;1.93;1.60;;;;;;;6.36;60.98;101023.31;4989024;28;20283;-86
2022/04/20 00:38:32;;;;;;;2.10;1.80;;;;;;;6.31;60.68;101030.56;4989730;28;20224;-85
2022/04/20 00:41:00;;;;;;;2.43;1.83;;;;;;;6.25;60.87;101026.41;4994722;28;20269;-85
2022/04/20 00:43:28;;;;;;;3.40;1.80;;;;;;;6.17;60.87;101029.34;4990076;28;20208;-86
2022/04/20 00:45:56;;;;;;;3.27;1.43;;;;;;;6.10;60.92;101026.97;4987304;28;20243;-85
2022/04/20 00:48:23;;;;;;;2.90;1.73;;;;;;;6.05;61.40;101026.31;4989617;28;20199;-86
2022/04/20 00:50:50;;;;;;;2.20;1.30;;;;;;;6.00;62.11;101029.13;4987468;28;20613;-85
2022/04/20 00:53:18;;;;;;;2.00;1.67;;;;;;;5.98;61.96;101022.19;4985520;28;20208;-85
2022/04/20 00:55:44;;;;;;;2.90;2.10;;;;;;;5.91;62.33;101027.69;4985324;28;20861;-86
2022/04/20 00:58:13;;;;;;;3.50;2.20;;;;;;;5.88;62.57;101019.00;4993049;28;20234;-85
2022/04/20 01:00:39;;;;;;;3.20;1.60;;;;;;;5.85;62.72;101027.03;4987827;28;20677;-84
2022/04/20 01:03:06;;;;;;;3.10;2.00;;;;;;;5.83;63.08;101026.25;4994663;28;20207;-83
2022/04/20 01:05:33;;;;;;;2.57;2.20;;;;;;;5.83;63.20;101034.16;4986537;28;20234;-84
2022/04/20 01:07:59;;;;;;;2.67;2.03;;;;;;;5.81;63.25;101026.28;4988802;28;20221;-85
2022/04/20 01:10:27;;;;;;;4.63;2.37;;;;;;;5.80;63.62;101029.00;4987544;28;20214;-83
2022/04/20 01:12:55;;;;;;;2.20;1.97;;;;;;;5.79;63.74;101020.19;4995629;28;20571;-84
2022/04/20 01:15:22;;;;;;;2.60;2.20;;;;;;;5.79;63.88;101024.63;4994769;28;20216;-84
2022/04/20 01:17:48;;;;;;;1.93;1.80;;;;;;;5.77;63.87;101024.69;5000797;28;20720;-83
2022/04/20 01:20:17;;;;;;;3.50;1.97;;;;;;;5.76;63.73;101020.31;4995777;28;20298;-84
2022/04/20 01:22:46;;;;;;;4.17;2.20;;;;;;;5.76;64.01;101027.38;4997389;28;20203;-83
2022/04/20 01:25:13;;;;;;;2.43;1.77;;;;;;;5.74;64.02;101023.91;4995440;28;20310;-84
2022/04/20 01:27:41;;;;;;;2.63;2.10;;;;;;;5.72;63.73;101021.38;4992675;28;20199;-85
2022/04/20 01:30:09;;;;;;;3.10;1.80;;;;;;;5.70;63.74;101025.84;4994382;28;20202;-84
2022/04/20 01:32:36;;;;;;;2.50;2.10;;;;;;;5.69;64.12;101020.63;4994180;28;20215;-85
2022/04/20 01:35:02;;;;;;;2.30;2.10;;;;;;;5.67;63.84;101017.16;4994965;28;20224;-85
2022/04/20 01:37:30;;;;;;;4.80;2.47;;;;;;;5.64;63.65;101019.91;4987154;28;20851;-84
2022/04/20 01:39:58;;;;;;;3.13;2.43;;;;;;;5.62;63.78;101024.38;4986941;28;20287;-84
2022/04/20 01:42:24;;;;;;;2.00;1.90;;;;;;;5.56;63.77;101021.03;4995908;28;20209;-84
2022/04/20 01:44:51;;;;;;;2.70;2.30;;;;;;;5.53;63.97;101012.41;4995415;28;20318;-83
2022/04/20 01:47:17;;;;;;;4.60;2.10;;;;;;;5.49;63.61;101014.28;4996992;28;20880;-84
2022/04/20 01:49:44;;;;;;;2.97;1.90;;;;;;;5.46;63.86;101017.03;4991252;28;21501;-83
2022/04/20 01:52:10;;;;;;;2.67;2.10;;;;;;;5.44;63.75;101016.22;4990085;28;20212;-84
2022/04/20 01:54:37;;;;;;;2.73;1.93;;;;;;;5.43;63.48;101014.50;4989903;28;20208;-83
2022/04/20 01:57:05;;;;;;;3.30;2.20;;;;;;;5.41;63.66;101013.69;4993525;28;20223;-83
2022/04/20 01:59:32;;;;;;;3.20;2.10;;;;;;;5.35;63.68;101018.34;4990647;28;20223;-85
2022/04/20 02:04:42;;;;;;;3.30;2.60;;;;;;;5.27;63.75;101018.59;4979772;28;20634;-83
2022/04/20 02:07:08;;;;;;;3.13;2.60;;;;;;;5.25;64.33;101017.78;4987281;28;20225;-83
2022/04/20 02:09:35;;;;;;;3.20;2.40;;;;;;;5.24;64.33;101010.78;4981972;28;20231;-82
2022/04/20 02:12:02;;;;;;;3.53;2.50;;;;;;;5.21;64.01;101013.53;4980090;28;20654;-84
2022/04/20 02:14:30;;;;;;;2.80;2.10;;;;;;;5.20;64.30;101015.31;4989270;28;20207;-83
2022/04/20 02:16:56;;;;;;;2.83;2.40;;;;;;;5.17;64.20;101018.09;4986446;28;20302;-83
2022/04/20 02:19:23;;;;;;;2.70;2.17;;;;;;;5.13;64.06;101021.75;4992891;28;20254;-83
2022/04/20 02:21:49;;;;;;;2.40;2.10;;;;;;;5.10;64.53;101019.19;4977840;28;20211;-83
2022/04/20 02:24:16;;;;;;;3.40;2.10;;;;;;;5.08;64.11;101020.16;4985020;28;20291;-85
2022/04/20 02:26:42;;;;;;;4.10;1.93;;;;;;;5.07;64.59;101026.38;4987957;28;20237;-84
2022/04/20 02:29:09;;;;;;;3.30;2.30;;;;;;;5.05;64.13;101025.56;4983422;28;20247;-85
2022/04/20 02:31:37;;;;;;;2.60;2.27;;;;;;;5.03;64.58;101020.31;4983291;28;20299;-84
2022/04/20 02:34:04;;;;;;;4.87;2.70;;;;;;;5.02;64.50;101021.22;4982444;28;20207;-83
2022/04/20 02:36:31;;;;;;;5.40;2.83;;;;;;;5.02;64.52;101023.88;4980413;28;20324;-83
2022/04/20 02:38:58;;;;;;;3.60;2.50;;;;;;;5.00;64.24;101019.59;4975831;28;20255;-83
2022/04/20 02:41:24;;;;;;;3.43;2.30;;;;;;;4.99;64.78;101020.50;4991325;28;20212;-82
2022/04/20 02:43:51;;;;;;;4.13;2.23;;;;;;;4.97;64.73;101009.13;4989896;28;20208;-83
2022/04/20 02:46:17;;;;;;;3.13;2.37;;;;;;;4.95;64.61;101022.38;4979218;28;20232;-82
2022/04/20 02:48:45;;;;;;;3.00;2.37;;;;;;;4.94;64.73;101020.66;4984743;28;20214;-83
2022/04/20 02:51:12;;;;;;;3.00;2.40;;;;;;;4.93;64.44;101015.41;4985320;28;20629;-81
2022/04/20 02:53:43;;;;;;;3.53;2.50;;;;;;;4.88;64.63;101021.72;4996933;28;20666;-83
2022/04/20 02:56:10;;;;;;;4.57;3.23;;;;;;;4.85;64.49;101011.25;4982483;28;20744;-83
2022/04/20 02:58:36;;;;;;;3.13;2.83;;;;;;;4.80;64.58;101012.34;4991426;28;20931;-84
2022/04/20 03:01:03;;;;;;;3.70;2.70;;;;;;;4.75;64.63;101009.84;4990286;28;20217;-83
2022/04/20 03:03:30;;;;;;;3.10;2.40;;;;;;;4.71;64.83;101013.50;4988058;28;20203;-85
2022/04/20 03:05:57;;;;;;;4.23;2.50;;;;;;;4.67;64.61;101011.00;4986255;28;20228;-85
2022/04/20 03:08:24;;;;;;;3.20;2.60;;;;;;;4.61;65.48;101014.75;4983554;28;20209;-82
2022/04/20 03:10:51;;;;;;;3.70;2.67;;;;;;;4.58;65.34;101013.97;4986029;28;20300;-85
2022/04/20 03:13:18;;;;;;;3.03;2.33;;;;;;;4.54;65.15;101018.47;4987185;28;20207;-83
2022/04/20 03:15:45;;;;;;;4.20;2.13;;;;;;;4.48;65.10;101016.88;4983277;28;20232;-83
2022/04/20 03:18:12;;;;;;;2.73;2.20;;;;;;;4.41;65.64;101017.16;4980224;28;20327;-85
2022/04/20 03:20:38;;;;;;;3.97;2.33;;;;;;;4.35;65.42;101030.53;4992802;28;20215;-83
2022/04/20 03:23:06;;;;;;;3.43;2.57;;;;;;;4.32;65.87;101031.47;4986587;28;20218;-84
2022/04/20 03:25:33;;;;;;;4.13;2.60;;;;;;;4.31;65.92;101031.53;4985287;28;20226;-84
2022/04/20 03:27:59;;;;;;;2.77;2.50;;;;;;;4.30;66.60;101029.84;4986977;28;20212;-83
2022/04/20 03:30:27;;;;;;;4.30;2.30;;;;;;;4.30;66.27;101029.84;4992627;28;20210;-83
2022/04/20 03:32:54;;;;;;;3.17;2.47;;;;;;;4.30;66.44;101035.94;4988902;28;20211;-82
2022/04/20 03:35:21;;;;;;;2.83;2.50;;;;;;;4.28;66.86;101032.50;4984506;28;20231;-84
2022/04/20 03:37:47;;;;;;;4.27;2.40;;;;;;;4.27;67.17;101033.41;4981563;28;20203;-80
2022/04/20 03:40:15;;;;;;;5.50;2.60;;;;;;;4.23;67.01;101038.81;4986255;28;20200;-82
2022/04/20 03:42:42;;;;;;;3.23;2.23;;;;;;;4.15;66.89;101034.66;4990465;28;20214;-82
2022/04/20 03:45:09;;;;;;;4.10;2.47;;;;;;;4.09;66.45;101041.91;4987927;28;20694;-84
2022/04/20 03:47:36;;;;;;;3.80;2.50;;;;;;;4.03;67.06;101042.94;4986972;28;20319;-84
2022/04/20 03:50:02;;;;;;;3.83;2.30;;;;;;;3.97;67.30;101042.25;4983907;28;20243;-82
2022/04/20 03:52:29;;;;;;;3.17;2.73;;;;;;;3.92;67.07;101047.69;4989104;28;20214;-83
2022/04/20 03:54:55;;;;;;;3.13;2.43;;;;;;;3.87;66.80;101049.56;4990174;28;20306;-84
2022/04/20 03:57:23;;;;;;;2.73;2.30;;;;;;;3.83;67.64;101045.28;4989088;28;20207;-83
2022/04/20 03:59:50;;;;;;;3.47;2.60;;;;;;;3.81;67.98;101050.59;4990409;28;20230;-83
2022/04/20 04:02:17;;;;;;;4.20;2.93;;;;;;;3.80;67.60;101040.13;4989122;28;20214;-83
2022/04/20 04:04:44;;;;;;;4.93;2.83;;;;;;;3.79;68.02;101039.25;4985832;28;20863;-81
2022/04/20 04:07:10;;;;;;;3.53;2.53;;;;;;;3.80;67.82;101042.75;4986622;28;20226;-83
2022/04/20 04:09:38;;;;;;;4.47;2.60;;;;;;;3.77;68.47;101045.47;4984744;28;20280;-83
2022/04/20 04:12:05;;;;;;;3.80;2.50;;;;;;;3.77;68.19;101050.72;4986386;28;20212;-84
2022/04/20 04:14:37;;;;;;;3.83;2.87;;;;;;;3.74;68.12;101046.44;4989278;28;20207;-83
2022/04/20 04:17:04;;;;;;;4.57;2.53;;;;;;;3.74;68.18;101053.47;4987597;28;20211;-81
2022/04/20 04:19:31;;;;;;;3.30;2.57;;;;;;;3.72;68.79;101053.53;4984748;28;20224;-81
2022/04/20 04:21:58;;;;;;;3.77;2.60;;;;;;;3.72;68.39;101050.88;4982407;28;20263;-82
2022/04/20 04:24:36;;;;;;;4.83;3.00;;;;;;;3.72;68.33;101057.94;4983325;28;20212;-82
2022/04/20 04:27:05;;;;;;;3.40;2.50;;;;;;;3.71;68.72;101064.97;4991394;28;20207;-83
2022/04/20 04:29:33;;;;;;;3.00;2.50;;;;;;;3.72;69.34;101055.28;4983820;28;20646;-83
2022/04/20 04:32:01;;;;;;;3.00;2.50;;;;;;;3.69;68.86;101055.38;4986688;28;20212;-84
2022/04/20 04:34:29;;;;;;;3.87;2.63;;;;;;;3.66;68.77;101051.06;4987464;28;20208;-84
2022/04/20 04:36:56;;;;;;;4.03;2.63;;;;;;;3.61;69.25;101046.81;4991625;28;20240;-84
2022/04/20 04:39:24;;;;;;;2.90;2.37;;;;;;;3.58;68.87;101054.84;4988431;28;20310;-82
2022/04/20 04:41:51;;;;;;;3.37;2.53;;;;;;;3.53;68.73;101054.09;4986695;28;20210;-84
2022/04/20 04:44:17;;;;;;;4.63;2.80;;;;;;;3.48;69.19;101044.53;4986219;28;20212;-82
2022/04/20 04:49:30;;;;;;;3.23;2.13;;;;;;;3.42;69.42;101042.06;4989273;28;20222;-81
2022/04/20 04:51:58;;;;;;;7.27;2.67;;;;;;;3.39;70.30;101047.44;4990370;28;20210;-84
2022/04/20 04:54:24;;;;;;;4.47;2.90;;;;;;;3.36;70.19;101052.78;4994473;28;20222;-83
2022/04/20 04:56:52;;;;;;;5.03;3.53;;;;;;;3.34;70.57;101059.84;4987766;28;20278;-83
2022/04/20 04:59:18;;;;;;;5.53;3.57;;;;;;;3.32;71.13;101056.41;4986698;28;20933;-83
2022/04/20 05:01:46;;;;;;;5.60;3.07;;;;;;;3.34;71.25;101059.00;4991434;28;20203;-81
2022/04/20 05:04:13;;;;;;;9.53;3.40;;;;;;;3.34;71.51;101059.00;4984937;28;20211;-82
2022/04/20 05:06:41;;;;;;;4.97;2.70;;;;;;;3.37;71.43;101053.66;4987611;28;20315;-82
2022/04/20 05:09:08;;;;;;;7.33;3.23;;;;;;;3.38;71.98;101064.16;4985152;28;20307;-85
2022/04/20 05:11:34;;;;;;;6.40;2.67;;;;;;;3.39;71.93;101068.50;4985562;28;20571;-85
2022/04/20 05:14:01;;;;;;;5.13;3.07;;;;;;;3.38;71.34;101068.53;4980084;28;20216;-85
2022/04/20 05:16:28;;;;;;;3.10;2.77;;;;;;;3.38;72.28;101066.78;4991111;28;20229;-83
2022/04/20 05:18:56;;;;;;;3.87;2.43;;;;;;;3.39;71.65;101070.28;4984807;28;20231;-84
2022/04/20 05:21:23;;;;;;;3.73;3.10;;;;;;;3.42;72.01;101073.66;4978771;28;20212;-83
2022/04/20 05:23:49;;;;;;;3.00;2.30;;;;;;;3.47;72.79;101065.66;4986148;28;20605;-84
2022/04/20 05:26:16;;;;;;;2.80;2.40;;;;;;;3.51;73.00;101067.28;4989392;28;20315;-84
2022/04/20 05:28:42;;;;;;;3.83;2.57;;;;;;;3.55;72.71;101068.94;4992170;28;20294;-84
2022/04/20 05:31:09;;;;;;;5.43;2.70;;;;;;;3.59;72.59;101064.44;4984420;28;20295;-84
2022/04/20 05:33:36;;;;;;;3.43;2.50;;;;;;;3.65;72.66;101066.91;4984656;28;20203;-84
2022/04/20 05:36:04;;;;;;;3.83;2.73;;;;;;;3.71;72.89;101074.63;4984570;28;20310;-83
2022/04/20 05:41:41;;;;;;;3.27;2.73;;;;;;;3.88;73.88;101076.78;4967497;28;20726;-83
2022/04/20 05:44:08;;;;;;;4.00;2.90;;;;;;;3.99;74.49;101080.81;4984675;28;20214;-83
2022/04/20 05:46:35;;;;;;;5.00;2.60;;;;;;;4.09;74.83;101077.03;4984607;28;20354;-82
2022/04/20 05:49:02;;;;;;;5.20;2.67;;;;;;;4.21;74.71;101080.19;4989184;28;20203;-82
2022/04/20 05:51:30;;;;;;;4.90;2.57;;;;;;;4.31;74.53;101085.13;4985598;28;20204;-83
2022/04/20 05:53:56;;;;;;;4.57;2.40;;;;;;;4.41;73.79;101093.63;4981194;28;20210;-83
2022/04/20 05:56:23;;;;;;;3.57;2.60;;;;;;;4.49;73.13;101102.16;4984064;28;20629;-83
2022/04/20 05:58:52;;;;;;;3.43;2.43;;;;;;;4.57;72.98;101100.16;4983978;28;20231;-82
2022/04/20 06:01:19;;;;;;;5.30;2.70;;;;;;;4.66;72.82;101101.66;4994912;28;20199;-82
2022/04/20 06:03:46;;;;;;;4.17;2.40;;;;;;;4.74;72.70;101096.97;5009189;28;20214;-82
2022/04/20 06:06:13;;;;;;;4.73;2.87;;;;;;;4.83;72.44;101089.66;4992852;28;20232;-82
2022/04/20 06:08:41;;;;;;;4.37;2.47;;;;;;;4.92;71.58;101082.31;4984127;28;20203;-82
2022/04/20 06:11:08;;;;;;;5.33;2.43;;;;;;;4.99;71.29;101087.34;4973724;28;20200;-82
2022/04/20 06:13:35;;;;;;;4.93;3.07;;;;;;;5.07;71.11;101087.09;4978180;28;20242;-84
2022/04/20 06:16:01;;;;;;;4.23;2.87;;;;;;;5.14;70.71;101088.59;4989193;28;20228;-84
2022/04/20 06:18:28;;;;;;;3.40;3.03;;;;;;;5.19;70.14;101089.31;4991756;28;20210;-83
2022/04/20 06:20:54;;;;;;;6.00;2.80;;;;;;;5.27;69.76;101091.69;4996006;28;20229;-82
2022/04/20 06:23:22;;;;;;;4.57;3.07;;;;;;;5.33;69.86;101092.34;4992401;28;20204;-83
2022/04/20 06:25:54;;;;;;;5.53;3.10;;;;;;;5.43;69.84;101092.88;4986024;28;20232;-83
2022/04/20 06:28:20;;;;;;;6.13;3.27;;;;;;;5.51;70.13;101080.28;4975308;28;20207;-83
2022/04/20 06:30:47;;;;;;;5.60;3.10;;;;;;;5.62;69.80;101077.22;4978716;28;20197;-83
2022/04/20 06:33:13;;;;;;;4.30;3.20;;;;;;;5.69;69.31;101082.25;4991428;28;20208;-84
2022/04/20 06:35:40;;;;;;;4.47;3.10;;;;;;;5.78;68.86;101084.53;4988602;28;20723;-82
2022/04/20 06:38:07;;;;;;;4.40;3.23;;;;;;;5.86;68.75;101076.34;4983103;28;20208;-83
2022/04/20 06:40:34;;;;;;;5.33;3.50;;;;;;;5.96;68.43;101077.75;4987858;28;20641;-82
2022/04/20 06:43:01;;;;;;;6.30;3.37;;;;;;;6.03;67.69;101087.19;4988227;28;20290;-82
2022/04/20 06:45:28;;;;;;;3.80;2.80;;;;;;;6.09;67.15;101084.28;4983011;28;20228;-82
2022/04/20 06:47:59;;;;;;;4.87;3.20;;;;;;;6.18;67.18;101096.31;4994658;28;20203;-81
2022/04/20 06:50:25;;;;;;;5.03;2.77;;;;;;;6.29;67.14;101094.09;4987118;28;20302;-82
2022/04/20 06:58:35;;;;;;;6.47;3.17;;;;;;;6.68;66.45;101082.88;4995701;28;20198;-83
2022/04/20 07:01:05;;;;;;;4.90;2.93;;;;;;;6.80;66.17;101085.06;4982117;28;20220;-84
2022/04/20 07:03:32;;;;;;;4.73;3.50;;;;;;;6.94;65.47;101072.97;4979639;28;20348;-85
2022/04/20 07:05:59;;;;;;;5.97;3.37;;;;;;;7.12;65.82;101079.28;4993945;28;20721;-84
2022/04/20 07:08:26;;;;;;;4.13;2.93;;;;;;;7.27;64.83;101078.63;4996208;28;20267;-83
2022/04/20 07:10:53;;;;;;;4.57;3.33;;;;;;;7.43;64.46;101072.66;4992227;28;20267;-84
2022/04/20 07:13:21;;;;;;;4.67;2.97;;;;;;;7.60;64.23;101064.81;4991415;28;20204;-84
2022/04/20 07:15:48;;;;;;;4.13;3.40;;;;;;;7.74;63.87;101067.72;4992139;28;20249;-85
2022/04/20 07:18:15;;;;;;;5.00;3.40;;;;;;;7.92;63.93;101064.22;4992176;28;20728;-83
2022/04/20 07:20:42;;;;;;;6.47;3.50;;;;;;;8.11;63.64;101058.94;4983959;28;20633;-86
2022/04/20 07:23:09;;;;;;;6.77;3.43;;;;;;;8.26;61.78;101066.16;4976149;28;20224;-83
2022/04/20 07:25:36;;;;;;;3.80;3.23;;;;;;;8.41;62.50;101062.00;4990652;28;20577;-84
2022/04/20 07:28:03;;;;;;;4.83;3.47;;;;;;;8.59;62.83;101060.25;4996014;28;20203;-83
2022/04/20 07:30:31;;;;;;;3.97;3.27;;;;;;;8.75;62.03;101069.19;4995539;28;20200;-83
2022/04/20 07:32:58;;;;;;;6.60;3.70;;;;;;;8.89;60.70;101065.81;4995330;28;20203;-81
2022/04/20 07:35:25;;;;;;;4.77;3.33;;;;;;;8.98;60.32;101066.22;4995311;28;20347;-81
2022/04/20 07:37:51;;;;;;;4.00;3.40;;;;;;;9.13;60.91;101056.63;4995483;28;20666;-81
2022/04/20 07:40:18;;;;;;;4.80;3.43;;;;;;;9.31;60.17;101044.19;4994649;28;20227;-81
2022/04/20 07:42:44;;;;;;;5.20;3.13;;;;;;;9.43;59.56;101040.91;4995775;28;20637;-81
2022/04/20 07:45:11;;;;;;;7.20;3.60;;;;;;;9.52;59.37;101040.41;4995151;28;20694;-80
2022/04/20 07:47:39;;;;;;;4.37;3.60;;;;;;;9.59;58.42;101044.47;4995867;28;20207;-81
2022/04/20 07:50:23;;;;;;;3.90;3.30;;;;;;;9.67;58.33;101049.38;4994506;28;20218;-80
2022/04/20 07:52:53;;;;;;;4.73;3.33;;;;;;;9.74;58.84;101059.59;4994911;28;20196;-80
2022/04/20 07:55:21;;;;;;;4.80;3.10;;;;;;;9.82;58.04;101067.19;4995524;28;20371;-82
2022/04/20 07:57:49;;;;;;;7.40;4.00;;;;;;;9.87;57.25;101075.75;4994996;28;20801;-81
2022/04/20 08:00:17;;;;;;;5.30;3.77;;;;;;;9.93;57.99;101077.25;4995705;28;20263;-81
2022/04/20 08:02:45;;;;;;;5.40;3.77;;;;;;;10.00;58.10;101073.31;4994631;28;20601;-83
2022/04/20 08:05:14;;;;;;;4.67;3.77;;;;;;;10.06;57.51;101071.16;4994518;28;20600;-83
2022/04/20 08:07:41;;;;;;;5.77;2.97;;;;;;;10.10;57.36;101064.72;4995045;28;20211;-82
2022/04/20 08:10:10;;;;;;;6.03;3.30;;;;;;;10.15;57.18;101066.28;4994851;28;20214;-81
2022/04/20 08:12:37;;;;;;;5.40;3.20;;;;;;;10.19;56.84;101066.09;4994696;28;20222;-82
2022/04/20 08:15:05;;;;;;;5.03;3.50;;;;;;;10.26;56.63;101066.59;4994478;28;20227;-80
2022/04/20 08:17:32;;;;;;;3.93;3.47;;;;;;;10.33;57.01;101070.63;4994285;28;20245;-83
2022/04/20 08:20:01;;;;;;;4.37;3.00;;;;;;;10.38;56.96;101080.09;4994176;28;20233;-83
2022/04/20 08:22:27;;;;;;;6.03;3.73;;;;;;;10.45;56.80;101072.59;4994547;28;20200;-82
2022/04/20 08:24:54;;;;;;;4.93;3.50;;;;;;;10.49;56.29;101079.47;4994628;28;20224;-82
2022/04/20 08:27:22;;;;;;;5.57;3.40;;;;;;;10.55;57.17;101080.94;4994629;28;20309;-80
2022/04/20 08:29:49;;;;;;;4.00;3.40;;;;;;;10.61;56.82;101076.13;4994312;28;20662;-81
2022/04/20 08:32:17;;;;;;;5.17;3.80;;;;;;;10.69;57.32;101089.00;4994436;28;20314;-81
2022/04/20 08:34:43;;;;;;;6.07;3.50;;;;;;;10.79;57.22;101087.53;4994172;28;20226;-81
2022/04/20 08:37:12;;;;;;;5.40;3.57;;;;;;;10.88;57.08;101083.50;4994256;28;20270;-82
2022/04/20 08:39:39;;;;;;;5.00;3.57;;;;;;;11.00;57.31;101082.78;4994364;28;20232;-80
2022/04/20 08:42:06;;;;;;;4.47;3.97;;;;;;;11.12;57.23;101080.25;4993868;28;20216;-80
2022/04/20 08:44:35;;;;;;;4.47;3.40;;;;;;;11.29;56.30;101089.03;4993667;28;20260;-80
2022/04/20 08:47:04;;;;;;;3.10;2.80;;;;;;;11.38;54.65;101083.19;4994011;28;20208;-80
2022/04/20 08:49:31;;;;;;;4.37;3.30;;;;;;;11.41;53.72;101083.88;4993558;28;20266;-82
2022/04/20 08:54:45;;;;;;;3.20;2.77;;;;;;;11.58;54.35;101074.84;4993946;28;20235;-82
2022/04/20 08:57:19;;;;;;;5.23;3.50;;;;;;;11.69;53.48;101072.38;4994244;28;20209;-82
2022/04/20 08:59:48;;;;;;;3.93;3.40;;;;;;;11.85;53.28;101072.31;4994055;28;20228;-82
2022/04/20 09:02:16;;;;;;;4.40;3.60;;;;;;;11.96;52.95;101077.84;4994116;28;20859;-82
2022/04/20 09:04:43;;;;;;;4.47;3.33;;;;;;;12.06;52.40;101070.97;4994688;28;20238;-81
2022/04/20 09:07:11;;;;;;;4.67;3.53;;;;;;;12.15;51.88;101075.75;4994515;28;20207;-81
2022/04/20 09:09:38;;;;;;;4.13;3.30;;;;;;;12.25;52.01;101068.00;4992966;28;20582;-81
2022/04/20 09:12:12;;;;;;;5.77;3.57;;;;;;;12.35;51.91;101061.13;4993560;28;20226;-82
2022/04/20 09:14:40;;;;;;;4.43;3.17;;;;;;;12.41;51.63;101062.53;4993429;28;20685;-80
2022/04/20 09:17:07;;;;;;;4.50;3.80;;;;;;;12.42;50.47;101051.75;4993451;28;20207;-81
2022/04/20 09:19:34;;;;;;;4.73;3.60;;;;;;;12.48;51.25;101056.72;4993154;28;20214;-81
2022/04/20 09:22:00;;;;;;;4.67;3.30;;;;;;;12.61;51.26;101061.25;4993140;28;20237;-83
2022/04/20 09:24:27;;;;;;;3.70;3.00;;;;;;;12.73;51.17;101060.44;4993081;28;20219;-80
2022/04/20 09:26:56;;;;;;;5.57;2.83;;;;;;;12.90;51.16;101065.53;4993639;28;20576;-81
2022/04/20 09:29:24;;;;;;;8.30;3.37;;;;;;;12.99;49.53;101062.25;4993613;28;20559;-82
2022/04/20 09:31:52;;;;;;;3.50;3.17;;;;;;;13.10;48.59;101058.84;4993160;28;20207;-80
2022/04/20 09:34:53;;;;;;;4.53;3.00;;;;;;;13.16;48.83;101053.13;4993702;28;20208;-82
2022/04/20 09:37:21;;;;;;;3.50;2.90;;;;;;;13.23;48.10;101059.78;4993052;28;20308;-81
2022/04/20 09:39:50;;;;;;;5.47;2.97;;;;;;;13.31;48.41;101059.25;4993541;28;20208;-82
2022/04/20 09:42:18;;;;;;;3.90;2.97;;;;;;;13.42;48.12;101048.69;4993404;28;20215;-82
2022/04/20 09:44:55;;;;;;;4.33;3.20;;;;;;;13.50;48.31;101049.84;4993291;28;20222;-81
2022/04/20 09:50:08;;;;;;;4.10;2.97;;;;;;;13.77;47.90;101046.22;4993421;28;20294;-82
2022/04/20 09:52:40;;;;;;;2.87;2.50;;;;;;;13.92;47.89;101046.97;4993374;28;20211;-83
2022/04/20 09:55:08;;;;;;;4.00;3.50;;;;;;;14.04;46.73;101052.28;4993838;28;20250;-82
2022/04/20 09:57:37;;;;;;;4.23;2.90;;;;;;;14.09;46.11;101049.28;4992890;28;20639;-80
2022/04/20 10:00:09;;;;;;;6.03;3.07;;;;;;;14.14;46.22;101039.13;4993805;28;20301;-81
2022/04/20 10:02:38;;;;;;;3.47;3.17;;;;;;;14.20;45.92;101033.28;4996108;28;20211;-80
2022/04/20 10:05:06;;;;;;;3.73;2.50;;;;;;;14.27;45.92;101033.72;4989655;28;20232;-81
2022/04/20 10:07:33;;;;;;;3.63;2.83;;;;;;;14.36;46.22;101025.84;4980174;28;20622;-82
2022/04/20 10:09:59;;;;;;;4.50;2.67;;;;;;;14.50;45.62;101038.28;4994802;28;20211;-82
2022/04/20 10:12:30;;;;;;;5.13;3.13;;;;;;;14.58;44.42;101033.22;4998660;28;20215;-83
2022/04/20 10:17:49;;;;;;;4.93;3.00;;;;;;;14.63;44.14;101028.38;4995278;28;20219;-81
2022/04/20 10:20:16;;;;;;;5.30;3.13;;;;;;;14.68;44.22;101031.56;4979599;28;20271;-81
2022/04/20 10:22:44;;;;;;;3.73;2.70;;;;;;;14.72;43.85;101033.03;4987611;28;20199;-81
2022/04/20 10:25:13;;;;;;;4.93;2.73;;;;;;;14.78;43.28;101026.38;4991071;28;20616;-80
2022/04/20 10:28:07;;;;;;;4.63;3.00;;;;;;;14.82;43.17;101023.34;4999189;28;20214;-81
2022/04/20 10:30:44;;;;;;;4.00;2.83;;;;;;;14.90;43.31;101020.06;4986684;28;20204;-82
2022/04/20 10:33:16;;;;;;;4.27;3.20;;;;;;;14.94;42.92;101016.19;4998835;28;20650;-82
2022/04/20 10:35:56;;;;;;;4.70;2.80;;;;;;;14.97;43.31;101021.34;4985643;28;20239;-82
2022/04/20 10:38:23;;;;;;;6.50;3.23;;;;;;;15.03;43.80;101017.34;4990211;28;20207;-82
2022/04/20 10:40:58;;;;;;;3.57;3.03;;;;;;;15.07;43.12;101016.97;4981894;28;20262;-81
2022/04/20 10:43:26;;;;;;;3.77;3.33;;;;;;;15.11;43.12;101005.03;4987246;28;20224;-82
2022/04/20 10:46:06;;;;;;;5.80;2.90;;;;;;;15.17;43.13;100996.53;4999003;28;20686;-82
2022/04/20 10:48:55;;;;;;;5.57;2.93;;;;;;;15.22;42.91;100996.19;4993434;28;20744;-81
2022/04/20 10:51:26;;;;;;;4.93;3.40;;;;;;;15.26;42.66;100995.81;4981259;28;20196;-82
2022/04/20 10:53:54;;;;;;;4.10;3.20;;;;;;;15.31;42.78;100989.22;4988472;28;20205;-81
2022/04/20 10:56:21;;;;;;;3.23;2.87;;;;;;;15.33;42.80;100988.16;4990363;28;20316;-82
2022/04/20 10:59:10;;;;;;;4.77;2.53;;;;;;;15.34;42.47;100983.63;4996581;28;20520;-81
2022/04/20 11:02:09;;;;;;;5.37;3.30;;;;;;;15.35;42.51;100967.41;4980009;28;20283;-81
2022/04/20 11:04:41;;;;;;;3.20;2.40;;;;;;;15.38;41.99;100977.06;4992557;28;20215;-82
2022/04/20 11:07:23;;;;;;;5.77;3.17;;;;;;;15.43;42.92;100962.28;4995009;28;20212;-81
2022/04/20 11:10:07;;;;;;;3.70;3.03;;;;;;;15.52;43.18;100964.25;4995497;28;20564;-82
2022/04/20 11:18:43;;;;;;;4.37;2.97;;;;;;;15.79;42.40;100944.25;4990493;28;20210;-82
2022/04/20 11:21:19;;;;;;;4.13;3.10;;;;;;;15.86;42.24;100951.72;4987350;28;20263;-81
2022/04/20 11:23:55;;;;;;;5.20;3.57;;;;;;;15.92;42.98;100956.59;4991017;28;20715;-81
2022/04/20 11:26:25;;;;;;;4.03;3.40;;;;;;;15.99;42.83;100948.88;4983499;28;20235;-82
2022/04/20 11:28:52;;;;;;;3.63;2.73;;;;;;;16.04;42.36;100953.88;4995411;28;20304;-82
2022/04/20 11:31:19;;;;;;;4.67;3.37;;;;;;;16.02;41.96;100951.31;4987235;28;20203;-82
2022/04/20 11:33:46;;;;;;;4.57;2.90;;;;;;;15.98;41.85;100949.84;4992179;28;20785;-80
2022/04/20 11:36:15;;;;;;;4.17;2.53;;;;;;;15.98;42.06;100949.84;4986526;28;20225;-81
2022/04/20 11:38:46;;;;;;;3.07;2.33;;;;;;;16.01;41.87;100946.06;4987890;28;20579;-82
2022/04/20 11:41:14;;;;;;;3.63;2.70;;;;;;;16.07;41.37;100948.25;4988978;28;20556;-82
2022/04/20 11:43:41;;;;;;;2.97;2.37;;;;;;;16.07;40.92;100948.25;4986487;28;20234;-81
2022/04/20 11:46:08;;;;;;;4.47;2.67;;;;;;;16.04;40.71;100944.00;4984386;28;20255;-82
2022/04/20 11:48:36;;;;;;;4.27;2.70;;;;;;;16.04;40.94;100943.13;4979544;28;20572;-81
2022/04/20 11:51:04;;;;;;;3.63;2.53;;;;;;;16.05;40.88;100951.06;4991875;28;20210;-81
2022/04/20 11:53:37;;;;;;;3.87;2.40;;;;;;;16.07;40.65;100938.38;4986544;28;20220;-82
2022/04/20 11:56:07;;;;;;;3.87;2.87;;;;;;;16.08;40.67;100925.78;4986689;28;20226;-80
2022/04/20 11:58:34;;;;;;;3.80;2.87;;;;;;;16.08;40.78;100933.84;4991876;28;20251;-84
2022/04/20 12:01:03;;;;;;;3.03;2.17;;;;;;;16.06;40.63;100925.06;4985027;28;20256;-86
2022/04/20 12:03:31;;;;;;;3.60;2.50;;;;;;;16.08;41.01;100933.84;4984263;28;20259;-84
2022/04/20 12:06:05;;;;;;;3.07;2.63;;;;;;;16.14;40.71;100934.19;4981337;28;20228;-84